Time;durP1;ratioP1;P1;durP2;ratioP2;P2;SDS_P1;SDS_P2;PMS_P1;PMS_P2;Temp;Humidity;BMP_temperature;BMP_pressure;BME280_temperature;BME280_humidity;BME280_pressure;Samples;Min_cycle;Max_cycle;Signal;HPM_P1;HPM_P2
2024/04/17 00:00:27;;;;;;;37.80;6.28;;;;;;;;;;5486701;26;20030;-78
2024/04/17 00:03:32;;;;;;;35.85;5.88;;;;;;;;;;5486765;26;20026;-78
2024/04/17 00:06:36;;;;;;;44.60;7.63;;;;;;;;;;5486337;26;20038;-78
2024/04/17 00:09:42;;;;;;;31.75;6.57;;;;;;;;;;5486565;26;20048;-79
2024/04/17 00:12:46;;;;;;;34.97;6.82;;;;;;;;;;5486552;26;20033;-78
2024/04/17 00:15:51;;;;;;;35.97;7.20;;;;;;;;;;5486350;26;20366;-78
2024/04/17 00:18:55;;;;;;;36.13;7.03;;;;;;;;;;5486587;26;20076;-78
2024/04/17 00:22:00;;;;;;;48.20;6.40;;;;;;;;;;5486491;26;20729;-78
2024/04/17 00:25:04;;;;;;;39.25;6.18;;;;;;;;;;5486947;26;20642;-77
2024/04/17 00:28:08;;;;;;;38.17;5.88;;;;;;;;;;5486440;26;20485;-78
2024/04/17 00:31:14;;;;;;;39.63;6.00;;;;;;;;;;5486578;26;20046;-78
2024/04/17 00:34:18;;;;;;;38.08;6.43;;;;;;;;;;5486214;26;20034;-78
2024/04/17 00:37:22;;;;;;;42.75;6.10;;;;;;;;;;5486272;26;20413;-78
2024/04/17 00:40:33;;;;;;;38.55;6.50;;;18.10;93.50;;;;;;5486080;26;20374;-78
2024/04/17 00:43:38;;;;;;;37.10;5.43;;;;;;;;;;5486504;26;20021;-78
2024/04/17 00:46:43;;;;;;;39.65;5.32;;;18.10;93.70;;;;;;5486298;26;20096;-79
2024/04/17 00:49:48;;;;;;;35.13;5.30;;;;;;;;;;5486642;26;20022;-79
2024/04/17 00:52:53;;;;;;;25.35;5.05;;;19.30;93.70;;;;;;5485761;26;20262;-76
2024/04/17 00:55:58;;;;;;;33.33;6.00;;;;;;;;;;5485535;26;20021;-76
2024/04/17 00:59:02;;;;;;;33.72;5.70;;;;;;;;;;5485359;26;20034;-76
2024/04/17 01:02:07;;;;;;;39.15;5.78;;;;;;;;;;5485638;26;20022;-77
2024/04/17 01:05:11;;;;;;;29.00;5.50;;;;;;;;;;5485303;26;20026;-77
2024/04/17 01:08:16;;;;;;;34.42;5.45;;;;;;;;;;5484534;26;20478;-78
2024/04/17 01:11:21;;;;;;;29.58;5.40;;;;;;;;;;5485092;26;20030;-78
2024/04/17 01:14:25;;;;;;;36.80;6.07;;;;;;;;;;5485249;26;20030;-78
2024/04/17 01:17:30;;;;;;;39.50;6.28;;;;;;;;;;5485251;26;20026;-78
2024/04/17 01:20:34;;;;;;;32.90;5.10;;;;;;;;;;5487087;26;20034;-77
2024/04/17 01:23:39;;;;;;;44.35;6.00;;;;;;;;;;5488482;26;20030;-78
2024/04/17 01:26:43;;;;;;;38.72;6.05;;;;;;;;;;5488409;26;20030;-78
2024/04/17 01:29:47;;;;;;;39.47;6.00;;;;;;;;;;5488556;26;20026;-78
2024/04/17 01:32:52;;;;;;;41.90;6.10;;;;;;;;;;5488478;26;20033;-77
2024/04/17 01:35:56;;;;;;;32.88;6.05;;;;;;;;;;5488360;26;20025;-78
2024/04/17 01:39:01;;;;;;;32.25;5.80;;;;;;;;;;5488189;26;20029;-77
2024/04/17 01:42:05;;;;;;;32.92;5.72;;;;;;;;;;5488324;26;20045;-77
2024/04/17 01:45:10;;;;;;;40.47;6.13;;;;;;;;;;5488003;26;20026;-77
2024/04/17 01:48:14;;;;;;;38.42;5.53;;;;;;;;;;5488172;26;20038;-77
2024/04/17 01:51:19;;;;;;;39.13;6.20;;;;;;;;;;5488185;26;20042;-78
2024/04/17 01:54:23;;;;;;;34.90;5.22;;;;;;;;;;5487996;26;20446;-77
2024/04/17 01:57:27;;;;;;;43.22;6.28;;;;;;;;;;5487817;26;20030;-76
2024/04/17 02:00:33;;;;;;;37.40;5.53;;;;;;;;;;5487931;26;20030;-77
2024/04/17 02:03:37;;;;;;;37.00;6.13;;;;;;;;;;5487976;26;20030;-76
2024/04/17 02:06:42;;;;;;;38.97;6.30;;;;;;;;;;5487903;26;20050;-77
2024/04/17 02:09:46;;;;;;;29.20;4.75;;;;;;;;;;5488581;26;20026;-77
2024/04/17 02:12:51;;;;;;;34.08;5.25;;;;;;;;;;5488804;26;20026;-78
2024/04/17 02:16:03;;;;;;;38.47;4.95;;;16.60;95.50;;;;;;5488138;26;20034;-77
2024/04/17 02:19:07;;;;;;;33.70;5.97;;;;;;;;;;5488648;26;20025;-77
2024/04/17 02:22:12;;;;;;;33.78;5.82;;;;;;;;;;5487740;26;20030;-77
2024/04/17 02:25:16;;;;;;;31.77;5.60;;;;;;;;;;5488461;26;20035;-77
2024/04/17 02:28:21;;;;;;;38.40;5.03;;;;;;;;;;5486887;26;20446;-77
2024/04/17 02:31:25;;;;;;;46.03;6.35;;;;;;;;;;5486600;26;20366;-77
2024/04/17 02:34:30;;;;;;;31.88;5.00;;;;;;;;;;5487842;26;20022;-77
2024/04/17 02:37:34;;;;;;;36.17;5.80;;;;;;;;;;5487829;26;20054;-77
2024/04/17 02:40:39;;;;;;;36.38;7.07;;;;;;;;;;5487575;26;20030;-77
2024/04/17 02:43:43;;;;;;;40.33;7.78;;;;;;;;;;5487646;26;20366;-77
2024/04/17 02:46:48;;;;;;;39.20;6.18;;;;;;;;;;5487875;26;20026;-77
2024/04/17 02:49:52;;;;;;;32.53;5.78;;;;;;;;;;5487348;26;20026;-77
2024/04/17 02:52:58;;;;;;;38.63;5.85;;;;;;;;;;5488190;26;20041;-77
2024/04/17 02:56:02;;;;;;;40.00;5.40;;;;;;;;;;5487077;26;20097;-77
2024/04/17 02:59:07;;;;;;;38.20;5.28;;;;;;;;;;5487675;26;20026;-76
2024/04/17 03:02:12;;;;;;;39.65;5.32;;;;;;;;;;5487603;26;20030;-76
2024/04/17 03:05:16;;;;;;;38.42;4.72;;;;;;;;;;5487451;26;20030;-76
2024/04/17 03:08:20;;;;;;;28.55;5.10;;;;;;;;;;5487168;26;20030;-77
2024/04/17 03:11:25;;;;;;;34.42;5.53;;;;;;;;;;5487085;26;20106;-77
2024/04/17 03:14:29;;;;;;;39.25;5.45;;;;;;;;;;5486963;26;20041;-77
2024/04/17 03:17:34;;;;;;;32.85;5.63;;;;;;;;;;5487312;26;20030;-77
2024/04/17 03:20:39;;;;;;;28.63;5.60;;;;;;;;;;5487368;26;20374;-77
2024/04/17 03:23:44;;;;;;;25.17;4.93;;;;;;;;;;5487441;26;20145;-77
2024/04/17 03:26:48;;;;;;;33.22;5.07;;;;;;;;;;5487131;26;20034;-76
2024/04/17 03:29:53;;;;;;;30.10;5.47;;;;;;;;;;5487362;26;20030;-76
2024/04/17 03:32:57;;;;;;;32.78;5.57;;;;;;;;;;5486978;26;20096;-76
2024/04/17 03:36:02;;;;;;;34.38;5.50;;;;;;;;;;5486849;26;20033;-76
2024/04/17 03:39:06;;;;;;;37.33;6.30;;;;;;;;;;5486989;26;20026;-76
2024/04/17 03:42:10;;;;;;;44.00;6.18;;;;;;;;;;5485976;26;20022;-76
2024/04/17 03:45:15;;;;;;;35.58;5.60;;;;;;;;;;5486425;26;20026;-76
2024/04/17 03:48:20;;;;;;;29.13;4.72;;;;;;;;;;5486470;26;20026;-76
2024/04/17 03:51:24;;;;;;;28.90;4.35;;;;;;;;;;5486753;26;20058;-76
2024/04/17 03:54:29;;;;;;;30.38;5.63;;;;;;;;;;5486137;26;20026;-77
2024/04/17 03:57:33;;;;;;;37.58;5.30;;;;;;;;;;5485938;26;20038;-74
2024/04/17 04:00:38;;;;;;;43.47;5.85;;;;;;;;;;5486082;26;20034;-74
2024/04/17 04:03:42;;;;;;;34.15;5.72;;;;;;;;;;5485774;26;20026;-74
2024/04/17 04:06:47;;;;;;;29.67;5.45;;;;;;;;;;5486501;26;20026;-75
2024/04/17 04:09:51;;;;;;;37.40;6.05;;;;;;;;;;5486566;26;20033;-76
2024/04/17 04:12:55;;;;;;;34.03;7.20;;;;;;;;;;5485468;26;20474;-76
2024/04/17 04:16:00;;;;;;;24.65;4.82;;;;;;;;;;5486542;26;20374;-76
2024/04/17 04:19:04;;;;;;;34.45;6.47;;;;;;;;;;5486567;26;20026;-77
2024/04/17 04:22:09;;;;;;;33.50;4.93;;;;;;;;;;5486818;26;20026;-76
2024/04/17 04:25:13;;;;;;;31.25;5.45;;;;;;;;;;5486185;26;20030;-75
2024/04/17 04:28:18;;;;;;;39.05;6.03;;;;;;;;;;5486461;26;20030;-76
2024/04/17 04:31:22;;;;;;;40.60;6.05;;;;;;;;;;5486241;26;20041;-75
2024/04/17 04:34:27;;;;;;;33.45;5.88;;;;;;;;;;5486530;26;20030;-74
2024/04/17 04:37:31;;;;;;;37.30;5.88;;;;;;;;;;5486261;26;20479;-75
2024/04/17 04:40:35;;;;;;;34.08;6.43;;;;;;;;;;5485027;26;20025;-76
2024/04/17 04:43:40;;;;;;;32.33;5.30;;;;;;;;;;5486416;26;20030;-76
2024/04/17 04:46:44;;;;;;;29.60;6.10;;;;;;;;;;5486137;26;20026;-77
2024/04/17 04:49:49;;;;;;;30.25;5.47;;;;;;;;;;5486147;26;20030;-76
2024/04/17 04:52:53;;;;;;;32.63;5.57;;;;;;;;;;5485935;26;20030;-75
2024/04/17 04:56:03;;;;;;;37.88;5.47;;;16.20;97.10;;;;;;5484951;26;20030;-76
2024/04/17 04:59:07;;;;;;;34.08;6.53;;;;;;;;;;5485744;26;20022;-76
2024/04/17 05:02:12;;;;;;;31.60;5.65;;;;;;;;;;5485857;26;20025;-76
2024/04/17 05:05:16;;;;;;;30.90;5.45;;;;;;;;;;5485380;26;20025;-76
2024/04/17 05:08:20;;;;;;;25.60;5.78;;;;;;;;;;5485496;26;20264;-76
2024/04/17 05:11:25;;;;;;;37.13;5.72;;;;;;;;;;5485650;26;20027;-75
2024/04/17 05:14:30;;;;;;;32.35;6.03;;;;;;;;;;5486023;26;20022;-76
2024/04/17 05:17:34;;;;;;;30.27;5.43;;;;;;;;;;5485576;26;20363;-76
2024/04/17 05:20:38;;;;;;;30.17;6.03;;;;;;;;;;5485535;26;20027;-75
2024/04/17 05:23:43;;;;;;;33.15;5.72;;;;;;;;;;5485211;26;20486;-76
2024/04/17 05:26:47;;;;;;;34.33;6.80;;;;;;;;;;5485210;26;20034;-75
2024/04/17 05:29:52;;;;;;;36.78;7.20;;;;;;;;;;5483959;26;20614;-76
2024/04/17 05:32:56;;;;;;;34.88;5.93;;;;;;;;;;5485075;26;20029;-75
2024/04/17 05:36:00;;;;;;;32.22;5.75;;;;;;;;;;5483581;26;20026;-78
2024/04/17 05:39:05;;;;;;;39.22;6.35;;;;;;;;;;5484844;26;20619;-69
2024/04/17 05:42:10;;;;;;;35.92;5.93;;;;;;;;;;5484732;26;20046;-69
2024/04/17 05:45:14;;;;;;;38.28;5.80;;;;;;;;;;5484420;26;20030;-68
2024/04/17 05:48:19;;;;;;;27.95;5.97;;;;;;;;;;5484452;26;20065;-70
2024/04/17 05:51:23;;;;;;;34.53;5.90;;;;;;;;;;5484359;26;20030;-71
2024/04/17 05:54:28;;;;;;;24.00;5.65;;;;;;;;;;5484894;26;20478;-69
2024/04/17 05:57:33;;;;;;;29.52;6.40;;;;;;;;;;5484335;26;20594;-69
2024/04/17 06:00:37;;;;;;;33.78;6.35;;;;;;;;;;5484314;26;20026;-68
2024/04/17 06:03:42;;;;;;;30.20;5.95;;;20.60;85.90;;;;;;5483656;26;20061;-68
2024/04/17 06:06:45;;;;;;;26.60;6.03;;;22.00;86.80;;;;;;5486172;26;20018;-69
2024/04/17 06:09:49;;;;;;;38.15;5.47;;;21.90;87.60;;;;;;5486532;26;20022;-68
2024/04/17 06:12:54;;;;;;;34.90;6.20;;;21.70;87.30;;;;;;5486949;26;20033;-69
2024/04/17 06:15:58;;;;;;;34.13;5.97;;;21.50;87.30;;;;;;5487860;26;20025;-69
2024/04/17 06:19:02;;;;;;;37.22;6.18;;;21.50;87.00;;;;;;5487669;26;20018;-69
2024/04/17 06:22:06;;;;;;;32.65;7.05;;;21.50;88.30;;;;;;5487643;26;20018;-69
2024/04/17 06:25:10;;;;;;;34.95;7.05;;;21.70;87.50;;;;;;5487371;26;20025;-69
2024/04/17 06:28:15;;;;;;;33.63;6.65;;;21.80;86.00;;;;;;5487088;26;20029;-69
2024/04/17 06:31:21;;;;;;;37.53;7.28;;;21.50;86.70;;;;;;5487577;26;20021;-70
2024/04/17 06:34:25;;;;;;;39.55;7.53;;;21.80;86.80;;;;;;5487659;26;20361;-69
2024/04/17 06:37:29;;;;;;;37.38;7.13;;;21.90;86.70;;;;;;5486556;26;20021;-72
2024/04/17 06:40:33;;;;;;;43.45;7.57;;;21.80;85.50;;;;;;5487463;26;20025;-70
2024/04/17 06:43:37;;;;;;;45.78;7.47;;;21.50;86.30;;;;;;5487433;26;20018;-67
2024/04/17 06:46:42;;;;;;;34.83;8.40;;;21.40;88.00;;;;;;5487238;26;20018;-70
2024/04/17 06:49:49;;;;;;;41.85;7.60;;;21.70;88.20;;;;;;5486850;26;20741;-68
2024/04/17 06:52:53;;;;;;;37.33;6.85;;;22.20;85.30;;;;;;5486900;26;20019;-74
2024/04/17 06:55:58;;;;;;;42.80;7.45;;;22.30;87.30;;;;;;5487109;26;20019;-71
2024/04/17 06:59:02;;;;;;;39.28;7.90;;;22.20;86.10;;;;;;5487326;26;20019;-69
2024/04/17 07:02:06;;;;;;;38.90;6.15;;;22.30;85.20;;;;;;5487102;26;20022;-71
2024/04/17 07:05:10;;;;;;;39.03;7.00;;;21.90;85.40;;;;;;5486709;26;20022;-71
2024/04/17 07:08:15;;;;;;;38.70;7.35;;;21.40;84.50;;;;;;5486645;26;20018;-68
2024/04/17 07:11:19;;;;;;;38.40;7.20;;;21.40;87.10;;;;;;5487164;26;20035;-70
2024/04/17 07:14:23;;;;;;;38.58;7.07;;;21.40;85.10;;;;;;5484352;26;20037;-69
2024/04/17 07:17:27;;;;;;;44.75;6.53;;;21.70;86.40;;;;;;5483868;26;20564;-67
2024/04/17 07:20:32;;;;;;;38.47;6.38;;;21.70;86.70;;;;;;5485996;26;20038;-69
2024/04/17 07:23:38;;;;;;;47.80;7.03;;;22.10;85.10;;;;;;5485223;26;20376;-69
2024/04/17 07:26:42;;;;;;;42.38;6.72;;;22.20;84.70;;;;;;5485201;26;20022;-69
2024/04/17 07:29:46;;;;;;;46.80;7.30;;;22.30;84.70;;;;;;5486499;26;20022;-71
2024/04/17 07:32:50;;;;;;;40.63;6.35;;;22.80;83.50;;;;;;5486559;26;20026;-70
2024/04/17 07:35:58;;;;;;;29.05;5.93;;;22.90;82.80;;;;;;5484641;26;20376;-69
2024/04/17 07:39:02;;;;;;;29.52;5.38;;;23.40;80.80;;;;;;5484003;26;20018;-67
2024/04/17 07:42:07;;;;;;;33.47;6.47;;;23.90;81.40;;;;;;5484827;26;20026;-69
2024/04/17 07:45:12;;;;;;;33.83;5.32;;;24.30;77.20;;;;;;5486070;26;20143;-71
2024/04/17 07:48:16;;;;;;;35.63;6.28;;;24.60;76.30;;;;;;5485579;26;20462;-68
2024/04/17 07:51:20;;;;;;;25.20;6.25;;;24.60;77.20;;;;;;5485562;26;20018;-68
2024/04/17 07:54:24;;;;;;;30.52;5.55;;;24.80;77.50;;;;;;5486670;26;20017;-69
2024/04/17 07:57:28;;;;;;;33.88;6.68;;;24.40;75.40;;;;;;5486272;26;20022;-68
2024/04/17 08:00:33;;;;;;;43.35;6.93;;;24.10;76.50;;;;;;5485740;26;20469;-68
2024/04/17 08:03:37;;;;;;;34.67;5.68;;;23.70;74.90;;;;;;5485876;26;20018;-70
2024/04/17 08:06:41;;;;;;;37.97;6.75;;;23.00;77.50;;;;;;5484386;26;20325;-69
2024/04/17 08:09:45;;;;;;;42.60;7.22;;;22.50;79.70;;;;;;5483927;26;20022;-69
2024/04/17 08:12:52;;;;;;;32.60;6.65;;;;;;;;;;5483930;26;20369;-70
2024/04/17 08:15:56;;;;;;;43.47;6.97;;;;;;;;;;5485723;26;20026;-70
2024/04/17 08:19:00;;;;;;;41.67;7.20;;;26.10;83.40;;;;;;5484841;26;20034;-68
2024/04/17 08:22:05;;;;;;;33.75;7.25;;;;;;;;;;5484065;26;20038;-70
2024/04/17 08:25:09;;;;;;;35.25;6.90;;;24.20;78.30;;;;;;5485105;26;20089;-68
2024/04/17 08:28:13;;;;;;;29.63;7.10;;;23.60;76.80;;;;;;5485844;26;20024;-71
2024/04/17 08:31:17;;;;;;;40.92;6.47;;;21.30;75.80;;;;;;5484964;26;20038;-68
2024/04/17 08:34:21;;;;;;;34.67;7.90;;;24.30;76.30;;;;;;5485704;26;20018;-69
2024/04/17 08:37:25;;;;;;;35.50;6.50;;;;;;;;;;5485660;26;20022;-69
2024/04/17 08:40:30;;;;;;;33.05;6.70;;;24.30;76.00;;;;;;5485220;26;20013;-68
2024/04/17 08:43:37;;;;;;;27.08;5.32;;;24.90;76.70;;;;;;5485238;26;20457;-69
2024/04/17 08:46:45;;;;;;;31.88;5.55;;;24.70;75.10;;;;;;5484313;26;20045;-69
2024/04/17 08:49:51;;;;;;;27.77;5.60;;;25.20;73.40;;;;;;5485052;26;20030;-69
2024/04/17 08:53:00;;;;;;;23.02;5.30;;;25.40;71.50;;;;;;5484445;26;20017;-68
2024/04/17 08:56:05;;;;;;;33.65;7.00;;;25.30;72.20;;;;;;5484016;26;20022;-69
2024/04/17 08:59:12;;;;;;;27.23;5.13;;;25.00;73.40;;;;;;5485320;26;20466;-68
2024/04/17 09:02:17;;;;;;;25.77;4.95;;;25.00;73.00;;;;;;5484922;26;20022;-69
2024/04/17 09:05:21;;;;;;;33.70;5.95;;;24.90;72.10;;;;;;5485191;26;20018;-69
2024/04/17 09:08:26;;;;;;;32.97;6.57;;;24.50;72.80;;;;;;5485412;26;20026;-69
2024/04/17 09:11:32;;;;;;;31.63;5.50;;;24.30;73.10;;;;;;5484943;26;20022;-69
2024/04/17 09:14:36;;;;;;;23.55;5.30;;;24.70;71.80;;;;;;5484340;26;20026;-68
2024/04/17 09:17:41;;;;;;;39.97;6.03;;;24.30;72.00;;;;;;5484708;26;20022;-69
2024/04/17 09:20:45;;;;;;;35.65;6.93;;;;;;;;;;5484006;26;20025;-69
2024/04/17 09:23:50;;;;;;;33.08;6.05;;;;;;;;;;5484534;26;20374;-69
2024/04/17 09:26:54;;;;;;;26.92;5.72;;;24.30;75.40;;;;;;5484774;26;20034;-69
2024/04/17 09:29:58;;;;;;;26.40;4.97;;;24.80;73.70;;;;;;5483521;26;20019;-69
2024/04/17 09:33:02;;;;;;;32.80;4.93;;;24.50;73.40;;;;;;5484859;26;20365;-69
2024/04/17 09:36:06;;;;;;;19.55;4.00;;;;;;;;;;5484542;26;20466;-69
2024/04/17 09:39:11;;;;;;;30.83;5.10;;;24.60;72.20;;;;;;5484746;26;20026;-68
2024/04/17 09:42:16;;;;;;;18.88;4.72;;;;;;;;;;5486625;26;20373;-69
2024/04/17 09:45:24;;;;;;;17.35;4.50;;;25.00;72.80;;;;;;5487717;26;20038;-72
2024/04/17 09:48:30;;;;;;;24.25;5.50;;;24.60;72.30;;;;;;5487242;26;20022;-73
2024/04/17 09:51:36;;;;;;;25.73;5.90;;;25.20;73.50;;;;;;5488363;26;20022;-71
2024/04/17 09:54:43;;;;;;;23.45;5.68;;;25.20;72.90;;;;;;5487810;26;20022;-68
2024/04/17 09:57:50;;;;;;;28.13;5.88;;;24.00;70.30;;;;;;5488053;26;20021;-72
2024/04/17 10:00:54;;;;;;;21.80;5.13;;;;;;;;;;5487799;26;20537;-73
2024/04/17 10:04:00;;;;;;;27.15;5.80;;;23.90;76.30;;;;;;5486917;26;20046;-73
2024/04/17 10:07:04;;;;;;;34.95;6.80;;;23.90;77.00;;;;;;5486854;26;20022;-71
2024/04/17 10:10:15;;;;;;;39.95;6.72;;;24.00;75.90;;;;;;5486218;26;20041;-71
2024/04/17 10:13:20;;;;;;;32.55;6.70;;;24.10;74.80;;;;;;5487855;26;20273;-73
2024/04/17 10:16:24;;;;;;;31.70;6.50;;;;;;;;;;5487425;26;20022;-71
2024/04/17 10:19:29;;;;;;;48.58;6.35;;;23.70;77.10;;;;;;5486391;26;20032;-73
2024/04/17 10:22:34;;;;;;;26.98;5.97;;;;;;;;;;5487749;26;20022;-73
2024/04/17 10:25:53;;;;;;;35.90;7.35;;;23.70;77.10;;;;;;5486058;26;20025;-68
2024/04/17 10:28:59;;;;;;;36.33;6.35;;;;;;;;;;5487813;26;20025;-70
2024/04/17 10:32:11;;;;;;;29.60;5.97;;;24.30;76.50;;;;;;5486205;26;20030;-70
2024/04/17 10:35:16;;;;;;;36.47;6.50;;;;;;;;;;5487541;26;20018;-72
2024/04/17 10:38:25;;;;;;;26.23;6.57;;;24.20;76.20;;;;;;5486929;26;20030;-73
2024/04/17 10:41:30;;;;;;;29.92;6.00;;;;;;;;;;5487262;26;20516;-67
2024/04/17 10:44:45;;;;;;;36.00;6.47;;;24.00;75.30;;;;;;5486749;26;20477;-70
2024/04/17 10:47:50;;;;;;;36.42;6.13;;;;;;;;;;5486928;26;20018;-70
2024/04/17 10:50:55;;;;;;;37.03;6.70;;;23.90;75.00;;;;;;5485960;26;20026;-69
2024/04/17 10:54:00;;;;;;;32.78;5.53;;;24.00;75.80;;;;;;5486225;26;20033;-72
2024/04/17 10:57:04;;;;;;;46.55;7.47;;;;;;;;;;5487102;26;20018;-70
2024/04/17 11:00:09;;;;;;;60.40;8.38;;;23.50;75.00;;;;;;5487383;26;20026;-72
2024/04/17 11:03:14;;;;;;;40.03;5.57;;;28.50;76.50;;;;;;5486554;26;20121;-68
2024/04/17 11:06:18;;;;;;;31.08;6.55;;;;;;;;;;5486840;26;20022;-68
2024/04/17 11:09:22;;;;;;;27.65;5.35;;;;;;;;;;5486493;26;20034;-72
2024/04/17 11:12:27;;;;;;;27.20;5.32;;;;;;;;;;5487120;26;20034;-68
2024/04/17 11:15:31;;;;;;;31.17;6.20;;;;;;;;;;5485464;26;20038;-71
2024/04/17 11:18:36;;;;;;;24.10;4.93;;;;;;;;;;5485934;26;20026;-69
2024/04/17 11:21:43;;;;;;;42.03;7.13;;;24.90;73.00;;;;;;5486615;26;20034;-68
2024/04/17 11:24:49;;;;;;;29.98;5.43;;;22.60;71.30;;;;;;5486979;26;20022;-69
2024/04/17 11:27:54;;;;;;;25.17;4.75;;;;;;;;;;5485735;26;20473;-68
2024/04/17 11:30:59;;;;;;;24.60;4.47;;;;;;;;;;5486634;26;20026;-68
2024/04/17 11:34:03;;;;;;;22.88;5.07;;;;;;;;;;5486130;26;20049;-70
2024/04/17 11:37:08;;;;;;;31.70;5.40;;;24.30;72.30;;;;;;5487035;26;20069;-69
2024/04/17 11:40:13;;;;;;;33.95;5.43;;;;;;;;;;5486711;26;20022;-69
2024/04/17 11:43:17;;;;;;;31.00;4.55;;;24.10;72.30;;;;;;5486515;26;20030;-67
2024/04/17 11:46:22;;;;;;;30.35;5.30;;;;;;;;;;5484898;26;20026;-69
2024/04/17 11:49:27;;;;;;;24.30;4.93;;;;;;;;;;5486589;26;20022;-69
2024/04/17 11:52:32;;;;;;;21.83;4.68;;;;;;;;;;5485951;26;20022;-68
2024/04/17 11:55:36;;;;;;;20.45;4.55;;;;;;;;;;5484364;26;20026;-69
2024/04/17 11:58:43;;;;;;;26.55;4.00;;;;;;;;;;5483553;26;20031;-68
2024/04/17 12:01:47;;;;;;;25.42;5.97;;;;;;;;;;5484888;26;20035;-69
2024/04/17 12:04:52;;;;;;;22.17;4.60;;;;;;;;;;5485635;26;20034;-70
2024/04/17 12:07:58;;;;;;;25.58;4.65;;;;;;;;;;5486119;26;20371;-70
2024/04/17 12:11:03;;;;;;;20.88;5.13;;;;;;;;;;5485861;26;20034;-68
2024/04/17 12:14:07;;;;;;;20.63;4.95;;;;;;;;;;5485628;26;20026;-69
2024/04/17 12:17:12;;;;;;;25.27;5.03;;;;;;;;;;5485953;26;20030;-67
2024/04/17 12:20:16;;;;;;;21.08;4.20;;;;;;;;;;5486095;26;20030;-69
2024/04/17 12:23:21;;;;;;;23.08;3.95;;;;;;;;;;5485875;26;20030;-68
2024/04/17 12:29:48;;;;;;;18.75;4.10;;;;;;;;;;5486238;26;20026;-70
2024/04/17 12:32:53;;;;;;;20.42;4.43;;;;;;;;;;5486152;26;20026;-68
2024/04/17 12:35:57;;;;;;;21.33;4.55;;;;;;;;;;5464390;26;20030;-68
2024/04/17 12:39:02;;;;;;;32.65;5.10;;;;;;;;;;5485907;26;20030;-69
2024/04/17 12:42:07;;;;;;;20.48;4.25;;;;;;;;;;5486030;26;20030;-69
2024/04/17 12:45:11;;;;;;;29.67;5.22;;;;;;;;;;5484204;26;20026;-69
2024/04/17 12:48:16;;;;;;;28.30;6.00;;;;;;;;;;5484498;26;20038;-68
2024/04/17 12:51:20;;;;;;;27.50;5.50;;;;;;;;;;5486023;26;20365;-69
2024/04/17 12:54:25;;;;;;;35.17;5.60;;;;;;;;;;5485730;26;20326;-69
2024/04/17 12:57:30;;;;;;;29.48;5.13;;;;;;;;;;5485160;26;20031;-69
2024/04/17 13:00:37;;;;;;;27.75;4.93;;;23.50;76.30;;;;;;5484179;26;20026;-70
2024/04/17 13:03:41;;;;;;;34.03;6.07;;;;;;;;;;5484976;26;20018;-76
2024/04/17 13:06:48;;;;;;;27.52;5.95;;;;;;;;;;5485430;26;20053;-75
2024/04/17 13:09:52;;;;;;;24.83;5.00;;;;;;;;;;5484165;26;20393;-70
2024/04/17 13:12:57;;;;;;;46.28;6.30;;;;;;;;;;5483520;26;20029;-71
2024/04/17 13:16:01;;;;;;;27.50;4.90;;;23.30;77.30;;;;;;5483587;26;20034;-73
2024/04/17 13:19:06;;;;;;;24.75;4.50;;;;;;;;;;5485020;26;20018;-72
2024/04/17 13:22:10;;;;;;;21.75;4.28;;;;;;;;;;5484832;26;20375;-71
2024/04/17 13:25:14;;;;;;;25.30;4.55;;;;;;;;;;5485181;26;20026;-74
2024/04/17 13:28:19;;;;;;;23.23;5.18;;;;;;;;;;5484595;26;20022;-72
2024/04/17 13:31:23;;;;;;;33.88;4.60;;;;;;;;;;5484823;26;20419;-74
2024/04/17 13:34:28;;;;;;;16.77;4.05;;;;;;;;;;5484805;26;20376;-70
2024/04/17 13:37:32;;;;;;;16.83;4.43;;;;;;;;;;5484678;26;20038;-70
2024/04/17 13:40:37;;;;;;;30.58;6.18;;;;;;;;;;5484744;26;20030;-75
2024/04/17 13:43:41;;;;;;;31.58;10.48;;;;;;;;;;5484367;26;20101;-72
2024/04/17 13:46:46;;;;;;;29.00;4.85;;;;;;;;;;5483606;26;20027;-71
2024/04/17 13:49:50;;;;;;;25.05;5.10;;;;;;;;;;5483802;26;20097;-74
2024/04/17 13:52:55;;;;;;;30.33;5.78;;;;;;;;;;5483800;26;20057;-68
2024/04/17 13:55:59;;;;;;;27.75;5.63;;;;;;;;;;5483984;26;20038;-71
2024/04/17 13:59:03;;;;;;;24.00;4.53;;;;;;;;;;5484313;26;20032;-69
2024/04/17 14:02:08;;;;;;;20.42;4.45;;;;;;;;;;5484432;26;20030;-76
2024/04/17 14:05:12;;;;;;;26.40;4.10;;;;;;;;;;5483613;26;20118;-73
2024/04/17 14:08:17;;;;;;;18.40;3.97;;;;;;;;;;5484268;26;20026;-76
2024/04/17 14:11:21;;;;;;;16.73;4.10;;;;;;;;;;5484456;26;20026;-69
2024/04/17 14:14:26;;;;;;;25.70;4.65;;;;;;;;;;5482736;26;20477;-69
2024/04/17 14:17:30;;;;;;;12.45;3.25;;;;;;;;;;5483666;26;20038;-67
2024/04/17 14:20:35;;;;;;;29.85;4.38;;;23.60;74.90;;;;;;5484070;26;20034;-68
2024/04/17 14:23:40;;;;;;;25.00;4.50;;;;;;;;;;5483818;26;20022;-67
2024/04/17 14:26:46;;;;;;;17.63;4.47;;;23.60;77.20;;;;;;5484363;26;20096;-71
2024/04/17 14:29:50;;;;;;;22.52;4.90;;;;;;;;;;5487438;26;20470;-67
2024/04/17 14:32:54;;;;;;;21.55;4.88;;;;;;;;;;5487765;26;20038;-70
2024/04/17 14:36:06;;;;;;;27.65;4.57;;;23.50;78.10;;;;;;5484594;26;20030;-67
2024/04/17 14:39:10;;;;;;;27.02;4.60;;;;;;;;;;5486363;26;20485;-68
2024/04/17 14:42:15;;;;;;;23.25;3.58;;;;;;;;;;5487584;26;20034;-71
2024/04/17 14:45:19;;;;;;;33.72;5.43;;;;;;;;;;5487088;26;20030;-68
2024/04/17 14:48:25;;;;;;;26.00;3.53;;;22.30;77.50;;;;;;5487105;26;20042;-74
2024/04/17 14:51:31;;;;;;;27.27;6.38;;;;;;;;;;5487534;26;20438;-74
2024/04/17 14:54:35;;;;;;;22.27;4.78;;;;;;;;;;5486512;26;20030;-73
2024/04/17 14:57:40;;;;;;;21.95;4.18;;;;;;;;;;5485208;26;20022;-75
2024/04/17 15:00:47;;;;;;;16.58;2.55;;;22.50;74.50;;;;;;5485636;26;20037;-71
2024/04/17 15:03:54;;;;;;;10.45;1.98;;;;;;;;;;5487281;26;20018;-71
2024/04/17 15:07:00;;;;;;;13.98;2.17;;;;;;;;;;5485804;26;20034;-73
2024/04/17 15:10:04;;;;;;;14.93;3.25;;;;;;;;;;5483361;26;20026;-71
2024/04/17 15:13:08;;;;;;;13.52;2.53;;;;;;;;;;5486797;26;20038;-70
2024/04/17 15:16:13;;;;;;;8.90;1.92;;;21.20;73.50;;;;;;5486990;26;20690;-71
2024/04/17 15:19:17;;;;;;;16.90;2.10;;;;;;;;;;5487309;26;20033;-72
2024/04/17 15:22:22;;;;;;;30.58;2.80;;;;;;;;;;5486828;26;20030;-71
2024/04/17 15:25:26;;;;;;;13.57;3.22;;;;;;;;;;5486880;26;20034;-70
2024/04/17 15:28:31;;;;;;;10.15;2.38;;;;;;;;;;5486381;26;20037;-72
2024/04/17 15:31:35;;;;;;;20.55;2.53;;;;;;;;;;5486498;26;20381;-69
2024/04/17 15:34:40;;;;;;;17.88;2.47;;;;;;;;;;5486503;26;20035;-69
2024/04/17 15:37:44;;;;;;;15.40;2.72;;;;;;;;;;5485043;26;20026;-68
2024/04/17 15:41:03;;;;;;;16.63;2.67;;;19.20;85.80;;;;;;5485957;26;20039;-68
2024/04/17 15:44:07;;;;;;;17.95;2.53;;;;;;;;;;5484977;26;20022;-71
2024/04/17 15:47:12;;;;;;;18.00;2.70;;;;;;;;;;5463685;26;20378;-74
2024/04/17 15:50:16;;;;;;;14.82;2.28;;;;;;;;;;5486022;26;20026;-71
2024/04/17 15:53:21;;;;;;;16.27;2.55;;;;;;;;;;5486822;26;20477;-68
2024/04/17 15:56:25;;;;;;;8.95;2.35;;;;;;;;;;5485863;26;20029;-75
2024/04/17 15:59:30;;;;;;;10.45;1.95;;;;;;;;;;5485913;26;20030;-69
2024/04/17 16:02:36;;;;;;;11.68;3.00;;;;;;;;;;5486054;26;20054;-72
2024/04/17 16:05:41;;;;;;;11.38;3.25;;;;;;;;;;5484811;26;20493;-73
2024/04/17 16:08:46;;;;;;;13.48;2.92;;;;;;;;;;5484878;26;20030;-71
2024/04/17 16:11:50;;;;;;;10.25;2.40;;;;;;;;;;5485696;26;20490;-71
2024/04/17 16:14:55;;;;;;;7.20;1.30;;;;;;;;;;5486176;26;20030;-75
2024/04/17 16:17:59;;;;;;;4.45;0.82;;;;;;;;;;5484819;26;20026;-70
2024/04/17 16:21:11;;;;;;;7.55;1.00;;;16.80;83.90;;;;;;5486149;26;20022;-71
2024/04/17 16:24:17;;;;;;;3.88;1.17;;;;;;;;;;5485976;26;20027;-72
2024/04/17 16:27:21;;;;;;;5.65;1.00;;;;;;;;;;5486259;26;20030;-73
2024/04/17 16:30:27;;;;;;;2.25;0.90;;;;;;;;;;5484172;26;20072;-71
2024/04/17 16:33:32;;;;;;;2.78;0.80;;;;;;;;;;5486058;26;20030;-70
2024/04/17 16:36:36;;;;;;;6.40;0.60;;;;;;;;;;5484320;26;20026;-71
2024/04/17 16:39:43;;;;;;;3.47;0.90;;;;;;;;;;5485675;26;20030;-71
2024/04/17 16:42:48;;;;;;;5.20;1.48;;;;;;;;;;5485393;26;20142;-72
2024/04/17 16:46:07;;;;;;;5.22;1.90;;;17.00;87.10;;;;;;5485014;26;20504;-74
2024/04/17 16:49:12;;;;;;;9.25;2.00;;;;;;;;;;5485429;26;20057;-72
2024/04/17 16:52:16;;;;;;;4.88;1.58;;;;;;;;;;5484663;26;20444;-70
2024/04/17 16:55:20;;;;;;;8.80;2.08;;;;;;;;;;5462650;26;20034;-73
2024/04/17 16:58:25;;;;;;;5.35;1.92;;;;;;;;;;5485160;26;20017;-71
2024/04/17 17:01:29;;;;;;;8.38;1.38;;;;;;;;;;5484412;26;20029;-70
2024/04/17 17:04:34;;;;;;;6.72;1.60;;;;;;;;;;5484486;26;20026;-70
2024/04/17 17:07:38;;;;;;;8.55;1.73;;;;;;;;;;5484281;26;20030;-70
2024/04/17 17:10:52;;;;;;;7.07;1.00;;;15.20;89.40;;;;;;5483527;26;20485;-71
2024/04/17 17:13:56;;;;;;;6.93;1.77;;;;;;;;;;5484550;26;20034;-68
2024/04/17 17:17:00;;;;;;;5.85;1.73;;;15.50;89.60;;;;;;5484646;26;20034;-77
2024/04/17 17:20:05;;;;;;;8.90;2.15;;;17.00;89.40;;;;;;5484131;26;20030;-75
2024/04/17 17:23:10;;;;;;;8.93;1.75;;;;;;;;;;5482759;26;20112;-73
2024/04/17 17:26:15;;;;;;;6.53;1.70;;;13.60;87.40;;;;;;5483608;26;20452;-75